Miami, Florida
Traffic Map
Current Weather Conditions
Miami, Florida
Overcast
Overcast
24°
Feels Like: 24°
Wind Chill: 24° Ceiling: 18000
Heat Index: 24° Visibility: 10mi
Dew Point: 22° Wind: 6mph
Humidity: 87% Direction: 130° (SE)
Pressure: 29.94in Gusts: 0mph
Raw Report DataKMIA 211153Z 13005KT 10SM FEW027 SCT050 BKN180 OVC250 24/22 A2994 RMK AO2 SLP139 60000 70004 T02440222 10250 20239 51009
Traffic Incident Summary
Active as of:
Severity:
Category:
InformationThere was an issue retrieving the traffic information for this location. Please try a different location or try again shortly.
Advertisements
Track Severe Weather on mobile